createdAt,value
2018-01-04T00:00:03.577Z,9.18
2018-01-04T00:02:31.949Z,9.15
2018-01-04T00:05:00.286Z,9.17
2018-01-04T00:07:28.681Z,9.24
2018-01-04T00:09:57.062Z,9.34
2018-01-04T00:12:26.231Z,9.28
2018-01-04T00:14:54.582Z,9.20
2018-01-04T00:17:23.384Z,9.15
2018-01-04T00:19:51.699Z,9.02
2018-01-04T00:22:21.106Z,9.03
2018-01-04T00:24:50.206Z,8.97
2018-01-04T00:27:18.875Z,9.07
2018-01-04T00:29:48.125Z,8.99
2018-01-04T00:32:16.434Z,9.21
2018-01-04T00:34:44.748Z,9.05
2018-01-04T00:37:13.130Z,9.08
2018-01-04T00:39:42.278Z,8.96
2018-01-04T00:42:10.660Z,9.06
2018-01-04T00:44:39.479Z,9.10
2018-01-04T00:47:08.568Z,8.94
2018-01-04T00:49:36.902Z,9.04
2018-01-04T00:52:05.287Z,9.08
2018-01-04T00:54:33.641Z,8.94
2018-01-04T00:57:01.961Z,8.93
2018-01-04T00:59:30.381Z,8.92
2018-01-04T01:01:58.734Z,8.94
2018-01-04T01:04:27.048Z,8.97
2018-01-04T01:06:55.495Z,9.03
2018-01-04T01:09:23.867Z,9.12
2018-01-04T01:11:52.259Z,9.04
2018-01-04T01:14:21.376Z,8.89
2018-01-04T01:16:50.472Z,9.00
2018-01-04T01:19:19.993Z,8.94
2018-01-04T01:21:48.339Z,8.77
2018-01-04T01:24:16.668Z,8.78
2018-01-04T01:26:44.994Z,8.68
2018-01-04T01:29:13.526Z,8.78
2018-01-04T01:31:41.832Z,8.76
2018-01-04T01:34:10.168Z,8.82
2018-01-04T01:36:38.494Z,8.86
2018-01-04T01:39:06.792Z,8.67
2018-01-04T01:41:35.128Z,8.81
2018-01-04T01:44:05.636Z,8.73
2018-01-04T01:46:33.994Z,8.50
2018-01-04T01:49:15.893Z,8.31
2018-01-04T01:51:44.233Z,8.28
2018-01-04T01:54:12.583Z,8.23
2018-01-04T01:56:40.957Z,8.28
2018-01-04T01:59:09.258Z,8.30
2018-01-04T02:01:37.582Z,8.31
2018-01-04T02:04:05.972Z,8.28
2018-01-04T02:06:34.356Z,8.07
2018-01-04T02:09:02.695Z,7.98
2018-01-04T02:11:31.363Z,8.07
2018-01-04T02:13:59.742Z,7.90
2018-01-04T02:16:28.102Z,8.07
2018-01-04T02:19:14.154Z,8.10
2018-01-04T02:25:14.254Z,8.04
2018-01-04T02:28:01.048Z,8.18
2018-01-04T02:34:03.381Z,8.14
2018-01-04T02:39:56.725Z,8.19
2018-01-04T02:42:42.584Z,8.18
2018-01-04T02:45:28.434Z,8.24
2018-01-04T02:47:57.368Z,8.23
2018-01-04T02:50:26.451Z,8.24
2018-01-04T02:52:54.769Z,8.41
2018-01-04T02:55:23.113Z,8.21
2018-01-04T02:57:52.205Z,8.30
2018-01-04T03:00:21.301Z,8.28
2018-01-04T03:02:50.424Z,8.42
2018-01-04T03:05:18.751Z,8.43
2018-01-04T03:07:47.061Z,8.17
2018-01-04T03:10:16.429Z,8.26
2018-01-04T03:12:44.749Z,8.28
2018-01-04T03:15:13.828Z,8.22
2018-01-04T03:17:42.960Z,8.39
2018-01-04T03:20:11.311Z,8.29
2018-01-04T03:22:45.236Z,8.31
2018-01-04T03:25:18.965Z,8.21
2018-01-04T03:27:53.154Z,8.36
2018-01-04T03:33:33.567Z,8.19
2018-01-04T03:36:08.259Z,8.32
2018-01-04T03:38:45.121Z,7.95
2018-01-04T03:41:19.327Z,8.21
2018-01-04T03:43:58.278Z,8.24
2018-01-04T03:46:32.766Z,8.10
2018-01-04T03:49:06.607Z,8.18
2018-01-04T03:51:40.368Z,8.27
2018-01-04T03:54:32.999Z,8.23
2018-01-04T04:00:04.240Z,8.01
2018-01-04T04:02:38.001Z,8.04
2018-01-04T04:08:21.768Z,8.34
2018-01-04T04:10:50.110Z,8.37
2018-01-04T04:13:18.456Z,8.26
2018-01-04T04:15:46.785Z,8.35
2018-01-04T04:18:15.508Z,8.42
2018-01-04T04:20:44.619Z,8.37
2018-01-04T04:23:13.700Z,8.49
2018-01-04T04:25:42.803Z,8.37
2018-01-04T04:28:11.926Z,8.40
2018-01-04T04:30:40.293Z,8.59
2018-01-04T04:33:08.639Z,8.74
2018-01-04T04:36:06.060Z,8.73
2018-01-04T04:41:31.865Z,8.57
2018-01-04T04:44:00.963Z,8.61
2018-01-04T04:46:30.045Z,8.77
2018-01-04T04:49:01.225Z,8.81
2018-01-04T04:51:29.540Z,8.75
2018-01-04T04:53:57.995Z,8.69
2018-01-04T04:56:26.369Z,8.73
2018-01-04T04:58:54.694Z,8.77
2018-01-04T05:01:23.062Z,8.62
2018-01-04T05:03:51.612Z,8.32
2018-01-04T05:06:19.919Z,8.51
2018-01-04T05:08:48.226Z,8.42
2018-01-04T05:11:17.333Z,8.42
2018-01-04T05:13:46.453Z,8.69
2018-01-04T05:16:14.782Z,8.64
2018-01-04T05:18:43.143Z,8.38
2018-01-04T05:21:11.804Z,8.34
2018-01-04T05:23:40.143Z,8.45
2018-01-04T05:26:09.534Z,8.54
2018-01-04T05:28:37.903Z,8.74
2018-01-04T05:31:06.196Z,8.77
2018-01-04T05:33:34.554Z,8.77
2018-01-04T05:36:03.029Z,8.68
2018-01-04T05:38:31.432Z,8.70
2018-01-04T05:43:33.314Z,8.68
2018-01-04T05:46:01.903Z,8.66
2018-01-04T05:48:31.072Z,8.77
2018-01-04T05:50:59.470Z,9.03
2018-01-04T05:53:27.933Z,8.77
2018-01-04T05:55:56.435Z,8.78
2018-01-04T05:58:25.019Z,8.81
2018-01-04T06:00:53.582Z,8.63
2018-01-04T06:03:22.184Z,8.84
2018-01-04T06:05:50.665Z,8.83
2018-01-04T06:08:19.250Z,8.82
2018-01-04T06:10:47.630Z,8.84
2018-01-04T06:13:15.989Z,8.80
2018-01-04T06:15:44.369Z,9.00
2018-01-04T06:18:12.761Z,8.89
2018-01-04T06:20:41.136Z,8.94
2018-01-04T06:23:09.776Z,8.77
2018-01-04T06:25:38.216Z,8.79
2018-01-04T06:28:06.634Z,8.89
2018-01-04T06:30:35.793Z,8.95
2018-01-04T06:33:04.148Z,8.87
2018-01-04T06:35:32.530Z,8.88
2018-01-04T06:38:02.750Z,9.02
2018-01-04T06:40:31.127Z,9.03
2018-01-04T06:42:59.474Z,9.09
2018-01-04T06:45:27.909Z,8.69
2018-01-04T06:47:56.207Z,8.83
2018-01-04T06:50:25.390Z,8.62
2018-01-04T06:52:54.071Z,8.85
2018-01-04T06:55:22.413Z,8.97
2018-01-04T06:57:50.785Z,9.06
2018-01-04T07:00:19.172Z,9.18
2018-01-04T07:02:47.510Z,9.18
2018-01-04T07:05:15.853Z,9.23
2018-01-04T07:07:56.668Z,9.25
2018-01-04T07:10:24.992Z,9.40
2018-01-04T07:12:53.315Z,9.33
2018-01-04T07:15:21.687Z,9.31
2018-01-04T07:17:50.789Z,9.10
2018-01-04T07:20:19.896Z,9.11
2018-01-04T07:22:48.277Z,9.27
2018-01-04T07:25:16.807Z,9.31
2018-01-04T07:27:45.166Z,9.44
2018-01-04T07:30:13.765Z,9.56
2018-01-04T07:32:42.073Z,9.59
2018-01-04T07:35:10.387Z,9.51
2018-01-04T07:37:38.729Z,9.47
2018-01-04T07:40:07.054Z,9.39
2018-01-04T07:42:35.359Z,9.60
2018-01-04T07:45:03.709Z,9.52
2018-01-04T07:47:32.054Z,9.48
2018-01-04T07:50:00.379Z,9.43
2018-01-04T07:52:29.024Z,9.21
2018-01-04T07:54:57.347Z,9.24
2018-01-04T07:57:38.318Z,9.34
2018-01-04T08:00:06.611Z,9.46
2018-01-04T08:02:34.942Z,9.46
2018-01-04T08:05:04.098Z,9.40
2018-01-04T08:10:29.639Z,9.21
2018-01-04T08:12:57.949Z,9.25
2018-01-04T08:15:26.284Z,9.31
2018-01-04T08:17:54.636Z,9.28
2018-01-04T08:20:22.968Z,9.44
2018-01-04T08:23:02.989Z,9.25
2018-01-04T08:25:31.841Z,9.34
2018-01-04T08:28:00.170Z,9.38
2018-01-04T08:30:29.226Z,9.42
2018-01-04T08:32:57.623Z,9.56
2018-01-04T08:35:25.983Z,9.59
2018-01-04T08:37:54.323Z,9.62
2018-01-04T08:40:22.632Z,9.92
2018-01-04T08:42:50.941Z,9.89
2018-01-04T08:45:19.288Z,9.97
2018-01-04T08:47:47.600Z,9.83
2018-01-04T08:50:15.943Z,9.75
2018-01-04T08:52:44.633Z,9.91
2018-01-04T08:55:12.972Z,9.94
2018-01-04T08:57:41.515Z,9.92
2018-01-04T09:00:09.866Z,9.84
2018-01-04T09:02:38.184Z,9.80
2018-01-04T09:05:06.553Z,9.60
2018-01-04T09:07:34.924Z,9.51
2018-01-04T09:10:03.248Z,9.53
2018-01-04T09:12:31.592Z,9.65
2018-01-04T09:15:00.143Z,9.40
2018-01-04T09:17:28.474Z,9.41
2018-01-04T09:19:56.813Z,9.54
2018-01-04T09:22:25.188Z,9.55
2018-01-04T09:24:53.514Z,9.63
2018-01-04T09:27:21.808Z,9.56
2018-01-04T09:29:50.166Z,9.75
2018-01-04T09:32:18.501Z,9.87
2018-01-04T09:34:46.813Z,9.84
2018-01-04T09:37:15.448Z,9.76
2018-01-04T09:39:43.781Z,10.01
2018-01-04T09:42:12.171Z,9.99
2018-01-04T09:44:40.571Z,9.89
2018-01-04T09:47:09.695Z,9.76
2018-01-04T09:49:38.042Z,9.94
2018-01-04T09:52:06.382Z,10.00
2018-01-04T09:54:34.730Z,9.80
2018-01-04T09:57:03.075Z,9.80
2018-01-04T09:59:31.530Z,9.57
2018-01-04T10:01:59.828Z,9.69
2018-01-04T10:04:28.157Z,9.75
2018-01-04T10:06:56.526Z,9.82
2018-01-04T10:09:24.848Z,10.18
2018-01-04T10:11:53.182Z,10.33
2018-01-04T10:14:21.568Z,10.27
2018-01-04T10:16:49.932Z,10.19
2018-01-04T10:19:19.076Z,10.21
2018-01-04T10:21:47.798Z,10.23
2018-01-04T10:24:16.923Z,9.87
2018-01-04T10:26:45.255Z,9.88
2018-01-04T10:29:13.638Z,9.61
2018-01-04T10:31:41.943Z,9.60
2018-01-04T10:34:11.055Z,9.69
2018-01-04T10:36:39.419Z,9.58
2018-01-04T10:39:07.735Z,9.96
2018-01-04T10:41:36.064Z,9.98
2018-01-04T10:44:05.569Z,9.38
2018-01-04T10:46:34.672Z,9.62
2018-01-04T10:49:03.761Z,9.57
2018-01-04T10:51:32.118Z,9.70
2018-01-04T10:54:00.459Z,9.78
2018-01-04T10:56:28.804Z,9.77
2018-01-04T10:58:58.252Z,9.52
2018-01-04T11:01:26.564Z,9.69
2018-01-04T11:03:56.807Z,9.51
2018-01-04T11:06:30.050Z,9.75
2018-01-04T11:08:59.914Z,9.95
2018-01-04T11:11:28.274Z,10.40
2018-01-04T11:13:56.632Z,10.70
2018-01-04T11:16:24.983Z,10.69
2018-01-04T11:18:54.147Z,10.70
2018-01-04T11:21:23.330Z,11.09
2018-01-04T11:23:51.674Z,11.52
2018-01-04T11:26:20.007Z,12.26
2018-01-04T11:28:49.378Z,14.23
2018-01-04T11:31:17.695Z,14.48
2018-01-04T11:33:46.035Z,14.42
2018-01-04T11:36:14.418Z,14.71
2018-01-04T11:38:42.796Z,14.32
2018-01-04T11:41:11.122Z,13.88
2018-01-04T11:43:39.480Z,13.34
2018-01-04T11:46:07.849Z,13.25
2018-01-04T11:48:36.191Z,13.20
2018-01-04T11:51:04.675Z,12.69
2018-01-04T11:53:33.036Z,12.45
2018-01-04T11:56:01.410Z,11.94
2018-01-04T11:58:29.783Z,11.82
2018-01-04T12:00:58.144Z,12.51
2018-01-04T12:03:26.474Z,12.17
2018-01-04T12:05:54.871Z,11.71
2018-01-04T12:08:23.197Z,11.73
2018-01-04T12:10:51.736Z,11.97
2018-01-04T12:13:20.654Z,12.45
2018-01-04T12:15:48.970Z,13.18
2018-01-04T12:18:17.319Z,12.10
2018-01-04T12:20:46.452Z,11.61
2018-01-04T12:23:14.783Z,11.44
2018-01-04T12:25:43.106Z,11.84
2018-01-04T12:28:11.485Z,11.93
2018-01-04T12:30:39.848Z,12.08
2018-01-04T12:33:08.178Z,12.17
2018-01-04T12:35:36.698Z,12.91
2018-01-04T12:38:05.074Z,13.54
2018-01-04T12:40:33.437Z,13.41
2018-01-04T12:43:01.839Z,12.97
2018-01-04T12:45:30.177Z,13.83
2018-01-04T12:47:58.512Z,14.21
2018-01-04T12:50:26.877Z,15.16
2018-01-04T12:52:55.207Z,15.16
2018-01-04T12:55:23.564Z,13.82
2018-01-04T12:57:51.975Z,13.65
2018-01-04T13:00:20.332Z,13.17
2018-01-04T13:05:35.810Z,12.47
2018-01-04T13:08:04.128Z,12.36
2018-01-04T13:10:32.494Z,11.55
2018-01-04T13:13:01.166Z,11.88
2018-01-04T13:15:29.479Z,11.96
2018-01-04T13:17:57.815Z,12.05
2018-01-04T13:20:26.183Z,13.31
2018-01-04T13:22:54.512Z,14.13
2018-01-04T13:25:22.844Z,15.35
2018-01-04T13:27:51.229Z,15.10
2018-01-04T13:30:19.572Z,15.47
2018-01-04T13:32:47.907Z,14.83
2018-01-04T13:35:16.638Z,15.02
2018-01-04T13:37:45.732Z,14.91
2018-01-04T13:40:14.046Z,16.11
2018-01-04T13:42:42.386Z,15.81
2018-01-04T13:45:10.705Z,14.38
2018-01-04T13:47:39.197Z,13.82
2018-01-04T13:50:07.592Z,13.00
2018-01-04T13:52:35.944Z,12.18
2018-01-04T13:55:04.295Z,11.43
2018-01-04T13:57:32.710Z,11.48
2018-01-04T14:00:01.025Z,11.41
2018-01-04T14:02:29.388Z,11.07
2018-01-04T14:04:57.738Z,10.75
2018-01-04T14:07:26.124Z,10.57
2018-01-04T14:09:54.504Z,10.74
2018-01-04T14:12:22.848Z,10.95
2018-01-04T14:14:51.221Z,11.03
2018-01-04T14:17:19.547Z,10.90
2018-01-04T14:19:48.248Z,10.78
2018-01-04T14:22:17.386Z,10.46
2018-01-04T14:24:45.732Z,10.41
2018-01-04T14:27:14.168Z,10.18
2018-01-04T14:29:42.486Z,10.40
2018-01-04T14:32:10.853Z,10.34
2018-01-04T14:34:39.216Z,10.26
2018-01-04T14:37:07.544Z,10.13
2018-01-04T14:39:35.901Z,10.15
2018-01-04T14:42:04.728Z,9.85
2018-01-04T14:44:33.077Z,10.01
2018-01-04T14:47:02.208Z,9.97
2018-01-04T14:49:30.574Z,10.07
2018-01-04T14:51:58.907Z,10.21
2018-01-04T14:54:27.276Z,10.32
2018-01-04T14:56:55.642Z,10.24
2018-01-04T14:59:24.020Z,10.03
2018-01-04T15:01:52.408Z,9.99
2018-01-04T15:04:21.063Z,10.29
2018-01-04T15:06:49.413Z,10.07
2018-01-04T15:09:18.535Z,10.02
2018-01-04T15:11:53.779Z,10.11
2018-01-04T15:14:22.182Z,10.14
2018-01-04T15:16:50.550Z,10.25
2018-01-04T15:19:18.910Z,10.37
2018-01-04T15:21:48.009Z,10.32
2018-01-04T15:24:16.338Z,10.21
2018-01-04T15:26:45.415Z,9.97
2018-01-04T15:29:13.741Z,10.14
2018-01-04T15:31:42.915Z,10.08
2018-01-04T15:34:11.306Z,10.19
2018-01-04T15:36:39.710Z,10.15
2018-01-04T15:39:08.092Z,10.03
2018-01-04T15:41:37.240Z,10.33
2018-01-04T15:44:05.585Z,10.15
2018-01-04T15:46:33.986Z,10.22
2018-01-04T15:49:02.991Z,10.38
2018-01-04T15:51:31.345Z,10.29
2018-01-04T15:53:59.677Z,10.25
2018-01-04T15:56:28.045Z,10.28
2018-01-04T15:58:56.450Z,10.02
2018-01-04T16:01:24.773Z,10.08
2018-01-04T16:03:53.191Z,10.08
2018-01-04T16:06:22.326Z,9.99
2018-01-04T16:08:50.681Z,9.94
2018-01-04T16:11:20.104Z,9.88
2018-01-04T16:13:49.222Z,9.83
2018-01-04T16:16:17.550Z,9.73
2018-01-04T16:18:45.920Z,9.93
2018-01-04T16:21:14.262Z,10.06
2018-01-04T16:23:42.577Z,10.02
2018-01-04T16:26:10.970Z,9.85
2018-01-04T16:28:39.945Z,9.93
2018-01-04T16:31:08.250Z,9.73
2018-01-04T16:33:37.997Z,9.98
2018-01-04T16:36:06.360Z,9.88
2018-01-04T16:38:34.676Z,9.86
2018-01-04T16:41:03.053Z,9.78
2018-01-04T16:43:31.516Z,9.85
2018-01-04T16:45:59.848Z,9.69
2018-01-04T16:48:28.992Z,9.60
2018-01-04T16:50:57.341Z,9.68
2018-01-04T16:53:26.471Z,9.51
2018-01-04T16:55:54.911Z,9.44
2018-01-04T16:58:23.305Z,9.55
2018-01-04T17:00:52.419Z,9.75
2018-01-04T17:03:20.763Z,9.78
2018-01-04T17:05:49.101Z,9.55
2018-01-04T17:08:17.441Z,9.47
2018-01-04T17:10:45.789Z,9.54
2018-01-04T17:13:14.130Z,9.65
2018-01-04T17:15:42.481Z,9.86
2018-01-04T17:18:10.911Z,9.83
2018-01-04T17:20:39.259Z,9.80
2018-01-04T17:23:07.598Z,9.68
2018-01-04T17:25:36.736Z,9.53
2018-01-04T17:28:05.112Z,9.43
2018-01-04T17:30:33.467Z,9.48
2018-01-04T17:33:01.835Z,9.57
2018-01-04T17:35:30.931Z,9.63
2018-01-04T17:37:59.267Z,9.66
2018-01-04T17:40:28.469Z,9.66
2018-01-04T17:42:56.816Z,9.59
2018-01-04T17:45:25.212Z,9.59
2018-01-04T17:47:53.576Z,9.41
2018-01-04T17:50:21.902Z,9.45
2018-01-04T17:52:50.284Z,9.30
2018-01-04T17:55:18.658Z,9.37
2018-01-04T17:57:47.046Z,9.35
2018-01-04T18:00:15.369Z,9.30
2018-01-04T18:02:44.019Z,9.12
2018-01-04T18:05:12.353Z,9.19
2018-01-04T18:07:40.707Z,9.31
2018-01-04T18:10:09.095Z,9.29
2018-01-04T18:12:37.423Z,9.20
2018-01-04T18:15:05.792Z,9.21
2018-01-04T18:17:34.155Z,9.33
2018-01-04T18:20:02.517Z,9.23
2018-01-04T18:22:30.895Z,9.28
2018-01-04T18:24:59.435Z,9.42
2018-01-04T18:27:27.787Z,9.10
2018-01-04T18:29:56.108Z,9.16
2018-01-04T18:32:28.296Z,9.30
2018-01-04T18:34:56.773Z,9.38
2018-01-04T18:37:25.188Z,9.03
2018-01-04T18:39:57.221Z,8.73
2018-01-04T18:42:25.783Z,8.85
2018-01-04T18:44:54.875Z,8.96
2018-01-04T18:47:24.065Z,8.98
2018-01-04T18:49:53.155Z,9.04
2018-01-04T18:52:21.498Z,8.94
2018-01-04T18:54:49.880Z,8.89
2018-01-04T18:57:18.203Z,8.93
2018-01-04T18:59:46.538Z,8.85
2018-01-04T19:02:14.914Z,8.98
2018-01-04T19:04:43.235Z,8.89
2018-01-04T19:07:12.323Z,8.86
2018-01-04T19:09:41.065Z,8.99
2018-01-04T19:12:09.392Z,9.05
2018-01-04T19:14:37.757Z,8.84
2018-01-04T19:17:06.137Z,8.87
2018-01-04T19:19:34.494Z,8.97
2018-01-04T19:22:02.818Z,9.00
2018-01-04T19:24:31.959Z,8.93
2018-01-04T19:27:00.298Z,9.17
2018-01-04T19:29:29.397Z,9.31
2018-01-04T19:31:58.617Z,9.28
2018-01-04T19:34:26.964Z,9.46
2018-01-04T19:36:55.310Z,9.39
2018-01-04T19:39:23.723Z,9.57
2018-01-04T19:41:52.851Z,9.32
2018-01-04T19:44:21.152Z,9.20
2018-01-04T19:46:49.574Z,9.14
2018-01-04T19:49:17.908Z,8.92
2018-01-04T19:51:47.143Z,8.87
2018-01-04T19:54:15.914Z,8.86
2018-01-04T19:56:45.073Z,9.01
2018-01-04T19:59:14.187Z,8.97
2018-01-04T20:01:42.595Z,9.12
2018-01-04T20:04:10.952Z,9.09
2018-01-04T20:06:51.054Z,8.86
2018-01-04T20:09:19.400Z,8.95
2018-01-04T20:11:47.740Z,8.80
2018-01-04T20:14:16.245Z,8.88
2018-01-04T20:16:44.618Z,8.96
2018-01-04T20:19:12.941Z,8.91
2018-01-04T20:21:41.388Z,9.21
2018-01-04T20:24:09.790Z,9.17
2018-01-04T20:26:38.230Z,8.61
2018-01-04T20:29:06.631Z,8.54
2018-01-04T20:31:34.989Z,8.47
2018-01-04T20:34:27.963Z,8.50
2018-01-04T20:36:56.335Z,8.56
2018-01-04T20:39:24.688Z,8.65
2018-01-04T20:41:53.094Z,8.52
2018-01-04T20:44:21.426Z,8.45
2018-01-04T20:46:50.582Z,8.55
2018-01-04T20:49:18.923Z,8.65
2018-01-04T20:51:47.290Z,8.81
2018-01-04T20:54:15.630Z,8.80
2018-01-04T20:56:44.310Z,8.49
2018-01-04T20:59:12.652Z,8.61
2018-01-04T21:01:40.999Z,8.64
2018-01-04T21:04:10.123Z,8.84
2018-01-04T21:06:38.505Z,8.72
2018-01-04T21:09:06.848Z,8.77
2018-01-04T21:11:35.194Z,8.84
2018-01-04T21:14:03.533Z,8.77
2018-01-04T21:16:31.861Z,8.78
2018-01-04T21:19:00.575Z,8.73
2018-01-04T21:21:29.676Z,8.85
2018-01-04T21:23:58.032Z,9.11
2018-01-04T21:26:26.402Z,8.97
2018-01-04T21:28:54.757Z,9.08
2018-01-04T21:31:23.084Z,9.04
2018-01-04T21:33:51.493Z,8.99
2018-01-04T21:36:19.819Z,9.10
2018-01-04T21:38:48.182Z,9.13
2018-01-04T21:41:16.919Z,9.02
2018-01-04T21:43:46.068Z,9.24
2018-01-04T21:46:14.394Z,9.42
2018-01-04T21:48:43.540Z,9.57
2018-01-04T21:51:11.906Z,9.49
2018-01-04T21:53:40.289Z,9.50
2018-01-04T21:56:08.637Z,9.48
2018-01-04T21:58:42.764Z,9.61
2018-01-04T22:01:11.193Z,9.61
2018-01-04T22:03:39.535Z,9.48
2018-01-04T22:06:07.862Z,9.56
2018-01-04T22:08:36.217Z,9.73
2018-01-04T22:11:05.334Z,9.63
2018-01-04T22:13:33.667Z,9.49
2018-01-04T22:16:02.037Z,9.71
2018-01-04T22:18:30.371Z,9.43
2018-01-04T22:20:58.725Z,9.42
2018-01-04T22:23:27.269Z,9.60
2018-01-04T22:25:56.379Z,9.59
2018-01-04T22:28:24.743Z,9.77
2018-01-04T22:30:53.115Z,9.91
2018-01-04T22:33:21.450Z,9.75
2018-01-04T22:35:49.997Z,9.69
2018-01-04T22:38:18.373Z,9.90
2018-01-04T22:40:46.690Z,9.95
2018-01-04T22:43:14.986Z,9.84
2018-01-04T22:45:43.429Z,9.80
2018-01-04T22:48:11.730Z,9.87
2018-01-04T22:50:40.063Z,9.93
2018-01-04T22:53:08.462Z,10.26
2018-01-04T22:55:36.789Z,10.23
2018-01-04T22:58:05.126Z,9.99
2018-01-04T23:00:33.497Z,10.15
2018-01-04T23:03:01.829Z,10.28
2018-01-04T23:05:30.161Z,10.30
2018-01-04T23:07:58.717Z,10.28
2018-01-04T23:10:27.068Z,10.22
2018-01-04T23:12:55.415Z,10.26
2018-01-04T23:15:23.762Z,10.12
2018-01-04T23:17:52.106Z,10.06
2018-01-04T23:20:21.221Z,10.20
2018-01-04T23:22:50.356Z,10.35
2018-01-04T23:25:18.694Z,10.56
2018-01-04T23:27:47.007Z,10.44
2018-01-04T23:30:15.741Z,10.51
2018-01-04T23:32:44.049Z,10.65
2018-01-04T23:35:12.360Z,10.66
2018-01-04T23:37:40.713Z,10.77
2018-01-04T23:40:12.939Z,10.82
2018-01-04T23:42:41.267Z,10.90
2018-01-04T23:45:09.623Z,10.76
2018-01-04T23:47:38.750Z,10.79
2018-01-04T23:50:07.085Z,10.55
2018-01-04T23:52:36.263Z,10.58
2018-01-04T23:55:04.599Z,10.39
2018-01-04T23:57:32.921Z,10.46
